Tonghe, China
Current Conditions -  °F | °C
As of 9:00 PM on Monday 24 Nov 2014 (Local Time) from ZYHB Reporting Station
Smoke Smoke  
Wind Chill:   Ceiling: Unl
Heat Index:   Visibility: 1.5mi
Dew Point:   Wind: 4mph
Humidity: 79%   Direction: 180°S
Pressure: 30.33"   Gusts: NA
Location:  45.97°N, 128.73°E
Report Text: ZYHB 241300Z 18002MPS 2500 FU NSC M13/M16 Q1027 BECMG TL14303000
Loading
Personal Weather Stations






























Interactive Weather Map New forecast layout! Learn more

10-Day Weather Forecast

Advertisements
Track Severe Weather on mobile